Vadnais Heights, Minnesota
Current Conditions -  °F | °C
As of 2:51 PM on Tuesday 27 Jan 2015 (Local Time) from K21D Reporting Station
Overcast Overcast  
Wind Chill: 26°   Ceiling: 2000
Heat Index: 32°   Visibility: 10mi
Dew Point: 27°   Wind: 7mph
Humidity: 80%   Direction: 170°S
Pressure: 30.17"   Gusts: NA
Location:  45.0958°N, 93.0043°W
Report Text: K21D 272051Z AUTO 17006KT 10SM OVC020 00/M03 A3017 RMK AO2
Loading
Personal Weather Stations






























Interactive Weather Map New forecast layout! Learn more

10-Day Weather Forecast

Advertisements
Track Severe Weather on mobile